createdAt,value
2022-09-06T00:00:29.656Z,41.77
2022-09-06T00:03:02.795Z,41.78
2022-09-06T00:05:35.665Z,41.73
2022-09-06T00:08:08.723Z,41.81
2022-09-06T00:10:41.463Z,41.68
2022-09-06T00:13:14.354Z,41.68
2022-09-06T00:15:47.858Z,41.69
2022-09-06T00:18:21.706Z,41.68
2022-09-06T00:20:54.371Z,41.68
2022-09-06T00:23:27.695Z,41.66
2022-09-06T00:26:00.718Z,41.63
2022-09-06T00:28:33.741Z,41.66
2022-09-06T00:31:06.925Z,41.63
2022-09-06T00:33:39.783Z,41.67
2022-09-06T00:36:12.694Z,41.70
2022-09-06T00:38:45.742Z,41.71
2022-09-06T00:41:18.754Z,41.67
2022-09-06T00:43:51.695Z,41.65
2022-09-06T00:46:24.851Z,41.65
2022-09-06T00:48:57.747Z,41.65
2022-09-06T00:51:34.669Z,41.65
2022-09-06T00:54:07.809Z,41.78
2022-09-06T00:56:40.581Z,41.65
2022-09-06T00:59:13.863Z,41.65
2022-09-06T01:01:47.826Z,41.62
2022-09-06T01:04:20.855Z,41.63
2022-09-06T01:06:53.749Z,41.66
2022-09-06T01:09:26.788Z,41.49
2022-09-06T01:11:59.799Z,41.46
2022-09-06T01:14:32.776Z,41.59
2022-09-06T01:17:05.786Z,41.56
2022-09-06T01:19:38.822Z,41.69
2022-09-06T01:22:11.842Z,41.73
2022-09-06T01:24:44.809Z,41.78
2022-09-06T01:27:17.896Z,41.71
2022-09-06T01:29:50.809Z,41.70
2022-09-06T01:32:23.772Z,41.33
2022-09-06T01:34:56.857Z,41.40
2022-09-06T01:37:29.730Z,41.71
2022-09-06T01:40:02.941Z,41.88
2022-09-06T01:42:35.799Z,42.03
2022-09-06T01:45:08.811Z,42.23
2022-09-06T01:47:41.831Z,42.13
2022-09-06T01:50:14.896Z,42.23
2022-09-06T01:52:47.826Z,42.24
2022-09-06T01:55:22.714Z,42.31
2022-09-06T01:58:09.826Z,42.43
2022-09-06T02:00:42.895Z,42.55
2022-09-06T02:03:15.541Z,42.68
2022-09-06T02:05:48.900Z,42.77
2022-09-06T02:08:21.899Z,42.85
2022-09-06T02:10:54.929Z,42.97
2022-09-06T02:13:27.832Z,43.08
2022-09-06T02:16:00.945Z,43.35
2022-09-06T02:18:33.831Z,43.39
2022-09-06T02:21:06.908Z,43.45
2022-09-06T02:23:39.936Z,43.59
2022-09-06T02:26:12.879Z,43.67
2022-09-06T02:28:45.917Z,43.71
2022-09-06T02:31:18.908Z,43.81
2022-09-06T02:33:51.917Z,43.80
2022-09-06T02:36:30.891Z,44.06
2022-09-06T02:39:03.884Z,44.15
2022-09-06T02:41:36.556Z,44.08
2022-09-06T02:44:09.967Z,44.21
2022-09-06T02:46:42.927Z,44.31
2022-09-06T02:49:15.992Z,44.27
2022-09-06T02:51:48.953Z,44.39
2022-09-06T02:54:21.971Z,44.32
2022-09-06T02:56:54.899Z,44.49
2022-09-06T02:59:27.972Z,44.64
2022-09-06T03:02:01.039Z,44.79
2022-09-06T03:04:33.993Z,44.91
2022-09-06T03:07:06.919Z,44.92
2022-09-06T03:09:39.993Z,45.01
2022-09-06T03:12:12.997Z,45.35
2022-09-06T03:14:45.870Z,45.45
2022-09-06T03:17:18.994Z,45.82
2022-09-06T03:19:51.942Z,46.14
2022-09-06T03:22:24.959Z,46.10
2022-09-06T03:24:57.922Z,46.10
2022-09-06T03:27:30.924Z,46.16
2022-09-06T03:30:03.981Z,46.26
2022-09-06T03:32:39.938Z,46.55
2022-09-06T03:35:13.013Z,46.61
2022-09-06T03:37:45.966Z,46.58
2022-09-06T03:40:19.048Z,46.65
2022-09-06T03:42:51.915Z,46.70
2022-09-06T03:45:24.973Z,46.70
2022-09-06T03:47:57.968Z,46.89
2022-09-06T03:50:31.178Z,46.89
2022-09-06T03:53:04.983Z,46.95
2022-09-06T03:55:38.069Z,46.94
2022-09-06T03:58:13.981Z,47.11
2022-09-06T04:00:48.097Z,47.09
2022-09-06T04:03:21.054Z,47.23
2022-09-06T04:05:54.045Z,47.23
2022-09-06T04:08:26.999Z,47.33
2022-09-06T04:10:59.995Z,47.22
2022-09-06T04:13:33.058Z,47.36
2022-09-06T04:16:05.994Z,47.23
2022-09-06T04:18:52.935Z,47.33
2022-09-06T04:21:26.084Z,47.15
2022-09-06T04:23:59.121Z,47.24
2022-09-06T04:26:32.043Z,47.41
2022-09-06T04:29:04.978Z,47.30
2022-09-06T04:31:38.184Z,47.65
2022-09-06T04:34:11.061Z,47.64
2022-09-06T04:36:48.185Z,47.60
2022-09-06T04:39:17.130Z,47.68
2022-09-06T04:41:50.134Z,47.66
2022-09-06T04:44:23.006Z,47.37
2022-09-06T04:46:56.224Z,47.96
2022-09-06T04:49:28.745Z,47.73
2022-09-06T04:52:01.764Z,47.77
2022-09-06T04:54:36.859Z,47.61
2022-09-06T04:57:11.071Z,47.81
2022-09-06T04:59:44.093Z,47.54
2022-09-06T05:02:17.099Z,47.36
2022-09-06T05:04:50.025Z,47.44
2022-09-06T05:07:23.061Z,47.54
2022-09-06T05:09:56.221Z,47.35
2022-09-06T05:12:30.235Z,47.54
2022-09-06T05:15:04.125Z,47.51
2022-09-06T05:17:37.202Z,47.45
2022-09-06T05:20:10.230Z,47.47
2022-09-06T05:22:57.126Z,47.43
2022-09-06T05:25:30.228Z,47.58
2022-09-06T05:28:03.190Z,47.61
2022-09-06T05:30:35.819Z,47.55
2022-09-06T05:33:08.836Z,47.60
2022-09-06T05:35:41.980Z,47.73
2022-09-06T05:38:14.866Z,47.70
2022-09-06T05:40:47.951Z,47.79
2022-09-06T05:43:21.253Z,47.84
2022-09-06T05:45:54.230Z,47.92
2022-09-06T05:48:27.130Z,47.91
2022-09-06T05:51:00.244Z,48.06
2022-09-06T05:53:33.149Z,48.15
2022-09-06T05:56:06.337Z,48.02
2022-09-06T05:58:40.231Z,47.95
2022-09-06T06:01:18.884Z,48.11
2022-09-06T06:03:52.135Z,48.11
2022-09-06T06:06:24.862Z,48.20
2022-09-06T06:08:58.081Z,48.41
2022-09-06T06:11:30.973Z,48.02
2022-09-06T06:14:04.192Z,48.76
2022-09-06T06:16:37.335Z,48.65
2022-09-06T06:19:10.008Z,48.58
2022-09-06T06:21:43.035Z,48.86
2022-09-06T06:24:16.082Z,48.94
2022-09-06T06:26:49.222Z,48.92
2022-09-06T06:29:36.150Z,48.72
2022-09-06T06:32:09.318Z,48.91
2022-09-06T06:34:41.973Z,48.93
2022-09-06T06:37:14.985Z,48.83
2022-09-06T06:39:48.367Z,49.01
2022-09-06T06:42:21.138Z,49.08
2022-09-06T06:44:54.141Z,49.08
2022-09-06T06:47:26.913Z,49.22
2022-09-06T06:50:00.242Z,49.22
2022-09-06T06:52:32.951Z,49.37
2022-09-06T06:55:06.301Z,49.36
2022-09-06T06:57:39.107Z,49.36
2022-09-06T07:00:12.045Z,49.41
2022-09-06T07:02:45.097Z,49.36
2022-09-06T07:07:50.942Z,49.45
2022-09-06T07:10:39.322Z,49.47
2022-09-06T07:12:59.240Z,49.44
2022-09-06T07:15:45.849Z,49.35
2022-09-06T07:18:18.961Z,49.26
2022-09-06T07:26:12.194Z,49.57
2022-09-06T07:28:45.020Z,49.30
2022-09-06T07:33:55.192Z,49.36
2022-09-06T07:36:23.976Z,49.36
2022-09-06T07:38:57.037Z,49.11
2022-09-06T07:41:30.041Z,49.13
2022-09-06T07:44:03.011Z,49.03
2022-09-06T07:46:36.484Z,49.10
2022-09-06T07:49:09.080Z,49.05
2022-09-06T07:51:42.269Z,49.05
2022-09-06T07:54:31.405Z,49.06
2022-09-06T07:56:48.311Z,49.23
2022-09-06T07:59:21.449Z,48.95
2022-09-06T08:01:54.396Z,49.00
2022-09-06T08:04:27.351Z,48.83
2022-09-06T08:09:33.213Z,48.96
2022-09-06T08:12:06.478Z,48.80
2022-09-06T08:14:39.214Z,48.73
2022-09-06T08:17:12.411Z,48.73
2022-09-06T08:19:45.032Z,48.76
2022-09-06T08:22:18.114Z,48.69
2022-09-06T08:24:51.181Z,48.66
2022-09-06T08:27:24.049Z,48.71
2022-09-06T08:29:57.440Z,48.60
2022-09-06T08:32:31.339Z,48.62
2022-09-06T08:35:04.363Z,48.58
2022-09-06T08:37:37.333Z,48.58
2022-09-06T08:40:10.531Z,48.52
2022-09-06T08:42:43.434Z,48.54
2022-09-06T08:45:16.357Z,48.51
2022-09-06T08:47:49.113Z,48.54
2022-09-06T08:50:22.151Z,48.57
2022-09-06T08:53:13.673Z,48.53
2022-09-06T08:55:28.381Z,48.58
2022-09-06T08:58:01.258Z,48.56
2022-09-06T09:00:34.291Z,48.54
2022-09-06T09:03:07.259Z,48.53
2022-09-06T09:05:40.290Z,48.51
2022-09-06T09:08:13.243Z,48.61
2022-09-06T09:10:46.193Z,48.53
2022-09-06T09:13:19.205Z,48.49
2022-09-06T09:15:52.610Z,48.49
2022-09-06T09:18:25.311Z,48.51
2022-09-06T09:20:58.531Z,48.57
2022-09-06T09:23:31.457Z,48.64
2022-09-06T09:26:04.501Z,48.50
2022-09-06T09:28:37.433Z,48.49
2022-09-06T09:31:10.359Z,48.45
2022-09-06T09:33:57.289Z,48.50
2022-09-06T09:36:30.187Z,48.42
2022-09-06T09:39:03.358Z,48.45
2022-09-06T09:41:36.534Z,48.50
2022-09-06T09:44:09.466Z,48.38
2022-09-06T09:46:42.515Z,48.36
2022-09-06T09:49:15.557Z,48.36
2022-09-06T09:51:48.511Z,48.42
2022-09-06T09:54:21.559Z,48.42
2022-09-06T09:56:54.541Z,48.33
2022-09-06T09:59:27.513Z,48.33
2022-09-06T10:02:00.516Z,48.42
2022-09-06T10:04:48.996Z,48.28
2022-09-06T10:09:39.635Z,48.27
2022-09-06T10:12:13.481Z,48.27
2022-09-06T10:14:46.419Z,48.19
2022-09-06T10:17:19.304Z,48.18
2022-09-06T10:19:52.608Z,48.15
2022-09-06T10:22:25.506Z,48.17
2022-09-06T10:24:58.228Z,48.13
2022-09-06T10:27:31.633Z,48.13
2022-09-06T10:30:04.620Z,48.13
2022-09-06T10:32:37.524Z,48.08
2022-09-06T10:35:10.515Z,48.06
2022-09-06T10:37:43.570Z,48.11
2022-09-06T10:40:16.559Z,48.12
2022-09-06T10:42:49.632Z,48.05
2022-09-06T10:45:22.616Z,48.04
2022-09-06T10:47:55.613Z,47.97
2022-09-06T10:50:28.587Z,47.95
2022-09-06T10:53:01.388Z,47.98
2022-09-06T10:55:34.297Z,48.16
2022-09-06T10:58:22.559Z,47.98
2022-09-06T11:00:40.579Z,47.75
2022-09-06T11:05:46.693Z,47.42
2022-09-06T11:10:52.611Z,47.39
2022-09-06T11:13:25.538Z,47.53
2022-09-06T11:15:58.534Z,47.47
2022-09-06T11:18:31.691Z,47.44
2022-09-06T11:21:04.458Z,47.40
2022-09-06T11:23:37.455Z,47.29
2022-09-06T11:26:10.360Z,47.27
2022-09-06T11:28:43.498Z,47.30
2022-09-06T11:33:49.493Z,47.24
2022-09-06T11:36:22.330Z,47.19
2022-09-06T11:38:55.346Z,47.14
2022-09-06T11:41:28.371Z,47.18
2022-09-06T11:44:01.714Z,47.16
2022-09-06T11:46:34.889Z,47.10
2022-09-06T11:49:07.683Z,46.99
2022-09-06T11:51:40.634Z,46.95
2022-09-06T11:54:13.679Z,46.92
2022-09-06T11:56:46.779Z,46.88
2022-09-06T11:59:19.732Z,46.87
2022-09-06T12:01:52.669Z,46.88
2022-09-06T12:04:25.656Z,46.89
2022-09-06T12:07:01.687Z,46.88
2022-09-06T12:09:34.773Z,46.99
2022-09-06T12:12:07.657Z,46.91
2022-09-06T12:14:40.699Z,46.95
2022-09-06T12:17:13.796Z,46.87
2022-09-06T12:19:46.756Z,46.94
2022-09-06T12:22:33.748Z,46.90
2022-09-06T12:25:06.759Z,47.01
2022-09-06T12:27:39.690Z,47.00
2022-09-06T12:30:12.566Z,46.92
2022-09-06T12:32:45.779Z,46.98
2022-09-06T12:37:51.680Z,47.00
2022-09-06T12:40:24.736Z,47.04
2022-09-06T12:42:57.690Z,47.07
2022-09-06T12:45:30.715Z,47.13
2022-09-06T12:48:03.531Z,47.21
2022-09-06T12:50:36.597Z,47.22
2022-09-06T12:53:09.688Z,47.18
2022-09-06T12:55:42.723Z,47.24
2022-09-06T12:58:15.827Z,47.21
2022-09-06T13:00:48.787Z,47.15
2022-09-06T13:03:21.833Z,47.13
2022-09-06T13:05:54.753Z,47.09
2022-09-06T13:08:27.800Z,47.10
2022-09-06T13:11:00.789Z,47.17
2022-09-06T13:13:33.736Z,47.10
2022-09-06T13:16:06.790Z,47.00
2022-09-06T13:18:39.791Z,47.00
2022-09-06T13:21:12.879Z,46.95
2022-09-06T13:23:45.747Z,46.94
2022-09-06T13:26:18.896Z,46.90
2022-09-06T13:28:51.885Z,46.83
2022-09-06T13:31:24.961Z,46.87
2022-09-06T13:33:57.902Z,46.88
2022-09-06T13:36:30.773Z,46.92
2022-09-06T13:39:03.886Z,46.99
2022-09-06T13:41:36.886Z,47.01
2022-09-06T13:44:09.823Z,46.97
2022-09-06T13:46:42.969Z,46.87
2022-09-06T13:49:15.849Z,46.85
2022-09-06T13:52:02.735Z,46.82
2022-09-06T13:54:35.833Z,46.81
2022-09-06T13:57:08.815Z,46.76
2022-09-06T13:59:41.907Z,46.76
2022-09-06T14:02:14.825Z,46.77
2022-09-06T14:04:47.927Z,46.68
2022-09-06T14:07:20.913Z,46.68
2022-09-06T14:09:53.804Z,46.72
2022-09-06T14:12:26.825Z,46.75
2022-09-06T14:14:59.944Z,46.89
2022-09-06T14:17:32.554Z,46.94
2022-09-06T14:20:05.946Z,46.87
2022-09-06T14:22:38.744Z,47.05
2022-09-06T14:25:11.778Z,47.16
2022-09-06T14:27:44.691Z,47.17
2022-09-06T14:30:17.957Z,47.17
2022-09-06T14:32:50.712Z,47.22
2022-09-06T14:35:23.572Z,47.27
2022-09-06T14:37:56.757Z,47.29
2022-09-06T14:40:29.868Z,47.32
2022-09-06T14:43:02.969Z,47.31
2022-09-06T14:45:35.928Z,47.25
2022-09-06T14:48:08.584Z,47.06
2022-09-06T14:50:41.695Z,47.16
2022-09-06T14:53:36.757Z,47.29
2022-09-06T14:55:47.984Z,47.23
2022-09-06T14:58:20.967Z,47.25
2022-09-06T15:00:53.974Z,47.35
2022-09-06T15:03:26.636Z,47.48
2022-09-06T15:05:59.872Z,47.64
2022-09-06T15:08:46.628Z,47.60
2022-09-06T15:11:19.919Z,47.61
2022-09-06T15:13:52.658Z,47.43
2022-09-06T15:16:25.618Z,47.56
2022-09-06T15:18:58.812Z,47.44
2022-09-06T15:21:31.936Z,47.50
2022-09-06T15:24:07.387Z,47.49
2022-09-06T15:26:37.936Z,47.34
2022-09-06T15:29:10.818Z,47.54
2022-09-06T15:31:43.641Z,47.34
2022-09-06T15:34:16.673Z,47.24
2022-09-06T15:36:49.730Z,47.24
2022-09-06T15:39:22.671Z,47.47
2022-09-06T15:41:55.845Z,47.37
2022-09-06T15:44:28.759Z,47.40
2022-09-06T15:47:02.062Z,47.44
2022-09-06T15:49:34.955Z,47.41
2022-09-06T15:52:08.085Z,47.39
2022-09-06T15:54:41.042Z,47.33
2022-09-06T15:57:13.987Z,47.37
2022-09-06T15:59:47.237Z,47.31
2022-09-06T16:02:20.982Z,47.32
2022-09-06T16:04:53.857Z,47.26
2022-09-06T16:07:26.700Z,47.27
2022-09-06T16:09:59.914Z,47.20
2022-09-06T16:12:32.909Z,47.18
2022-09-06T16:15:05.880Z,47.21
2022-09-06T16:17:40.006Z,47.18
2022-09-06T16:20:12.710Z,47.17
2022-09-06T16:22:45.833Z,47.14
2022-09-06T16:25:18.746Z,47.08
2022-09-06T16:27:52.128Z,47.06
2022-09-06T16:30:25.027Z,47.03
2022-09-06T16:32:57.838Z,47.01
2022-09-06T16:35:31.069Z,47.00
2022-09-06T16:38:07.310Z,47.00
2022-09-06T16:40:39.821Z,46.95
2022-09-06T16:43:12.952Z,46.96
2022-09-06T16:45:46.002Z,46.95
2022-09-06T16:48:19.053Z,46.93
2022-09-06T16:50:53.019Z,46.94
2022-09-06T16:53:26.058Z,46.94
2022-09-06T16:55:59.012Z,46.97
2022-09-06T16:58:32.065Z,46.95
2022-09-06T17:01:05.168Z,46.96
2022-09-06T17:03:38.176Z,46.96
2022-09-06T17:06:11.151Z,46.97
2022-09-06T17:08:44.059Z,46.99
2022-09-06T17:11:20.131Z,46.95
2022-09-06T17:13:52.941Z,46.99
2022-09-06T17:16:26.139Z,46.97
2022-09-06T17:18:59.167Z,46.97
2022-09-06T17:21:31.811Z,46.94
2022-09-06T17:24:05.122Z,46.95
2022-09-06T17:26:37.865Z,46.99
2022-09-06T17:29:11.178Z,46.98
2022-09-06T17:31:44.229Z,46.96
2022-09-06T17:34:17.205Z,46.97
2022-09-06T17:36:50.144Z,46.99
2022-09-06T17:39:26.124Z,46.95
2022-09-06T17:41:59.121Z,47.04
2022-09-06T17:44:33.246Z,47.03
2022-09-06T17:47:12.881Z,47.01
2022-09-06T17:49:38.997Z,46.97
2022-09-06T17:52:12.151Z,46.99
2022-09-06T17:54:45.016Z,47.13
2022-09-06T17:57:18.000Z,47.12
2022-09-06T17:59:50.985Z,47.18
2022-09-06T18:02:23.852Z,47.22
2022-09-06T18:04:57.283Z,47.24
2022-09-06T18:07:30.169Z,47.29
2022-09-06T18:10:02.889Z,47.29
2022-09-06T18:12:35.908Z,47.32
2022-09-06T18:15:09.040Z,47.30
2022-09-06T18:17:42.111Z,47.26
2022-09-06T18:20:15.003Z,47.23
2022-09-06T18:22:48.186Z,47.24
2022-09-06T18:25:20.985Z,47.21
2022-09-06T18:27:53.944Z,47.21
2022-09-06T18:30:27.916Z,47.20
2022-09-06T18:33:01.112Z,47.16
2022-09-06T18:35:34.016Z,47.11
2022-09-06T18:38:07.119Z,47.15
2022-09-06T18:40:39.908Z,47.15
2022-09-06T18:43:13.289Z,47.15
2022-09-06T18:45:46.302Z,47.18
2022-09-06T18:48:19.024Z,47.18
2022-09-06T18:50:52.000Z,47.20
2022-09-06T18:53:24.992Z,47.00
2022-09-06T18:55:58.078Z,46.80
2022-09-06T18:58:31.160Z,46.57
2022-09-06T19:01:04.155Z,46.45
2022-09-06T19:03:37.079Z,46.15
2022-09-06T19:06:10.278Z,45.95
2022-09-06T19:08:43.138Z,45.97
2022-09-06T19:11:16.443Z,45.80
2022-09-06T19:13:49.983Z,45.69
2022-09-06T19:16:23.067Z,45.74
2022-09-06T19:18:56.540Z,45.51
2022-09-06T19:21:30.200Z,45.60
2022-09-06T19:24:03.243Z,45.50
2022-09-06T19:26:36.179Z,45.64
2022-09-06T19:29:09.457Z,45.35
2022-09-06T19:31:43.499Z,45.05
2022-09-06T19:34:16.310Z,44.97
2022-09-06T19:36:49.038Z,44.77
2022-09-06T19:39:22.201Z,44.70
2022-09-06T19:41:55.304Z,44.71
2022-09-06T19:44:28.302Z,44.66
2022-09-06T19:47:01.250Z,44.59
2022-09-06T19:49:34.233Z,44.55
2022-09-06T19:52:07.062Z,44.54
2022-09-06T19:54:40.127Z,44.41
2022-09-06T19:57:16.138Z,44.40
2022-09-06T19:59:49.312Z,44.51
2022-09-06T20:02:23.471Z,44.22
2022-09-06T20:04:56.394Z,44.19
2022-09-06T20:07:29.287Z,43.92
2022-09-06T20:10:02.289Z,44.05
2022-09-06T20:12:35.139Z,44.00
2022-09-06T20:15:08.342Z,44.02
2022-09-06T20:17:41.348Z,43.86
2022-09-06T20:20:14.222Z,43.78
2022-09-06T20:22:50.284Z,43.62
2022-09-06T20:25:23.377Z,43.61
2022-09-06T20:27:56.051Z,43.48
2022-09-06T20:30:29.354Z,43.41
2022-09-06T20:33:02.354Z,44.32
2022-09-06T20:35:35.176Z,45.09
2022-09-06T20:38:09.141Z,44.67
2022-09-06T20:40:42.270Z,44.77
2022-09-06T20:43:15.483Z,45.20
2022-09-06T20:45:48.487Z,44.85
2022-09-06T20:48:21.453Z,45.02
2022-09-06T20:50:54.441Z,45.02
2022-09-06T20:53:27.399Z,44.96
2022-09-06T20:56:00.384Z,44.58
2022-09-06T20:58:33.404Z,44.46
2022-09-06T21:01:06.393Z,44.60
2022-09-06T21:03:39.481Z,44.18
2022-09-06T21:06:13.464Z,44.56
2022-09-06T21:08:46.471Z,44.46
2022-09-06T21:11:19.520Z,44.70
2022-09-06T21:13:52.484Z,44.57
2022-09-06T21:16:25.635Z,44.77
2022-09-06T21:18:59.407Z,44.85
2022-09-06T21:21:32.548Z,44.87
2022-09-06T21:24:05.422Z,44.87
2022-09-06T21:26:38.484Z,44.79
2022-09-06T21:29:11.482Z,44.78
2022-09-06T21:31:44.499Z,44.85
2022-09-06T21:34:17.549Z,44.54
2022-09-06T21:36:50.515Z,44.93
2022-09-06T21:39:23.462Z,44.71
2022-09-06T21:41:56.338Z,44.70
2022-09-06T21:44:29.490Z,44.76
2022-09-06T21:47:02.197Z,44.91
2022-09-06T21:49:35.542Z,44.93
2022-09-06T21:52:08.479Z,44.79
2022-09-06T21:54:41.552Z,44.93
2022-09-06T21:57:14.495Z,44.92
2022-09-06T21:59:47.587Z,44.87
2022-09-06T22:02:20.520Z,44.77
2022-09-06T22:04:53.556Z,44.78
2022-09-06T22:07:26.522Z,44.77
2022-09-06T22:09:59.472Z,44.91
2022-09-06T22:12:32.567Z,44.81
2022-09-06T22:15:05.521Z,44.81
2022-09-06T22:17:38.542Z,44.76
2022-09-06T22:20:11.616Z,44.91
2022-09-06T22:22:44.554Z,44.83
2022-09-06T22:25:17.598Z,44.80
2022-09-06T22:27:50.563Z,44.88
2022-09-06T22:30:25.776Z,44.98
2022-09-06T22:32:56.479Z,45.00
2022-09-06T22:35:29.595Z,44.89
2022-09-06T22:38:02.535Z,45.06
2022-09-06T22:40:35.381Z,44.97
2022-09-06T22:43:08.522Z,44.99
2022-09-06T22:45:41.593Z,44.98
2022-09-06T22:48:14.525Z,44.89
2022-09-06T22:50:47.882Z,44.98
2022-09-06T22:53:21.652Z,44.79
2022-09-06T22:55:54.624Z,44.76
2022-09-06T22:58:27.658Z,44.72
2022-09-06T23:01:00.655Z,44.72
2022-09-06T23:03:33.673Z,44.60
2022-09-06T23:06:06.632Z,44.71
2022-09-06T23:08:39.657Z,44.57
2022-09-06T23:11:12.649Z,44.61
2022-09-06T23:13:45.644Z,44.50
2022-09-06T23:16:18.798Z,44.47
2022-09-06T23:18:51.708Z,44.47
2022-09-06T23:21:24.640Z,44.50
2022-09-06T23:23:57.613Z,44.48
2022-09-06T23:26:32.654Z,44.52
2022-09-06T23:29:05.654Z,44.63
2022-09-06T23:31:38.631Z,44.59
2022-09-06T23:34:11.597Z,44.46
2022-09-06T23:36:44.719Z,44.63
2022-09-06T23:39:17.652Z,44.61
2022-09-06T23:41:50.716Z,44.81
2022-09-06T23:44:23.647Z,44.73
2022-09-06T23:46:56.801Z,44.84
2022-09-06T23:49:29.495Z,44.93
2022-09-06T23:52:02.744Z,44.99
2022-09-06T23:54:35.687Z,45.04
2022-09-06T23:57:08.353Z,44.98
2022-09-06T23:59:41.677Z,44.84
